Sichem Manila — 9HA3324 — position and weather

sailwx.info

Track history (hours):
 
Tides and Currents Weather Stations Pressure Air Temp Water Temp Dewpoint Dewpoint Depression Visibility Wind Speed Wind Dir Waves Ship Positions

Sichem Manila

Last reported at 2018-Aug-19 13:40 UTC. Time now 2018-Aug-19 22:53 UTC.
Position N 37°18' W 000°56'.

Length 129 m; draft 7.2 m.

Type: Tanker. MMSI: 229432000.

Date/timePositionNaut miles runAvg speedWind from/ knotsBaromVisibWave heightAir tempDewpointWater temp
2018-Aug-19 13:40N 37°18' W 000°56'213.1
2018-Aug-19 13:30N 37°20' W 000°54'613.0
2018-Aug-19 13:00N 37°24' W 000°48'713.0
2018-Aug-19 12:30N 37°28' W 000°42'612.9
2018-Aug-19 12:00N 37°32' W 000°36'612.8
2018-Aug-19 11:30N 37°37' W 000°31'612.6
2018-Aug-19 11:00N 37°43' W 000°27'612.4
2018-Aug-19 10:30N 37°48' W 000°22'712.2
2018-Aug-19 09:58N 37°53' W 000°17'612.3
2018-Aug-19 09:30N 37°58' W 000°14'  
2018-Aug-15 21:35N 37°46' W 000°20'114.1
2018-Aug-15 21:30N 37°45' W 000°21'713.6
2018-Aug-15 21:00N 37°40' W 000°26'713.4
2018-Aug-15 20:30N 37°34' W 000°31'713.4
2018-Aug-15 20:00N 37°29' W 000°36'713.4
2018-Aug-15 19:30N 37°24' W 000°42'713.3
2018-Aug-15 19:00N 37°19' W 000°47'713.2
2018-Aug-15 18:30N 37°14' W 000°52'222 7.2
2018-Aug-14 11:41N 35°54' W 005°10'214.0
2018-Aug-14 11:31N 35°55' W 005°13'4 8.9
2018-Aug-14 11:01N 35°54' W 005°18'1 1.7
2018-Aug-14 10:30N 35°54' W 005°19'0 0.0
2018-Aug-14 10:00N 35°54' W 005°19'0 0.0
2018-Aug-14 09:28N 35°54' W 005°19'0 0.0
2018-Aug-14 08:58N 35°54' W 005°19'0 0.0
2018-Aug-14 08:28N 35°54' W 005°19'0 0.0
2018-Aug-14 07:58N 35°54' W 005°19'0 0.0
2018-Aug-14 07:28N 35°54' W 005°19'0 0.0
2018-Aug-14 06:58N 35°54' W 005°19'0 0.0
2018-Aug-14 06:28N 35°54' W 005°19'0 0.0
2018-Aug-14 05:58N 35°54' W 005°19'0 0.0
2018-Aug-14 05:28N 35°54' W 005°19'0 0.0
2018-Aug-14 04:58N 35°54' W 005°19'0 0.0
2018-Aug-14 04:28N 35°54' W 005°19'0 0.0
2018-Aug-14 03:58N 35°54' W 005°19'0 0.0
2018-Aug-14 03:28N 35°54' W 005°19'0 0.0
2018-Aug-14 03:00N 35°54' W 005°19'1 1.3
2018-Aug-14 02:30N 35°54' W 005°19'2 3.0
2018-Aug-14 02:00N 35°55' W 005°19'2 3.3
2018-Aug-14 01:31N 35°57' W 005°20'5 9.8
2018-Aug-14 01:00N 36°02' W 005°21'5 9.5
2018-Aug-14 00:31N 36°06' W 005°24'1 1.6
2018-Aug-13 23:59N 36°06' W 005°25'0 0.1
2018-Aug-13 23:29N 36°06' W 005°25'0 0.1
2018-Aug-13 22:57N 36°06' W 005°25'1 3.1
2018-Aug-13 22:30N 36°07' W 005°24'2 4.4
2018-Aug-13 22:00N 36°09' W 005°24'2 3.1
2018-Aug-13 21:29N 36°11' W 005°24'0 0.0
2018-Aug-13 21:00N 36°11' W 005°24'0 0.0
2018-Aug-13 20:25N 36°11' W 005°24'0 0.0
2018-Aug-13 19:55N 36°11' W 005°24'0 0.0
2018-Aug-13 18:13N 36°11' W 005°24'0 0.0
2018-Aug-13 17:49N 36°11' W 005°24'0 0.0
2018-Aug-13 17:25N 36°11' W 005°24'0 0.0
2018-Aug-13 16:58N 36°11' W 005°24'0 0.0
2018-Aug-13 16:28N 36°11' W 005°24'0 0.0
2018-Aug-13 15:55N 36°11' W 005°24'0 0.0
2018-Aug-13 15:28N 36°11' W 005°24'0 0.0
2018-Aug-13 14:58N 36°11' W 005°24'0 0.0
2018-Aug-13 14:28N 36°11' W 005°24'0 0.0
2018-Aug-13 13:58N 36°11' W 005°24'0 0.0
2018-Aug-13 13:19N 36°11' W 005°24'0 0.0
2018-Aug-13 12:55N 36°11' W 005°24'0 0.0
2018-Aug-13 05:49N 36°11' W 005°24'0 0.0
2018-Aug-13 05:25N 36°11' W 005°24'0 0.0
2018-Aug-13 04:49N 36°11' W 005°24'0 0.0
2018-Aug-13 04:28N 36°11' W 005°24'0 0.0
2018-Aug-13 03:49N 36°11' W 005°24'0 0.0
2018-Aug-13 03:30N 36°11' W 005°24'0 0.4
2018-Aug-13 03:00N 36°10' W 005°24'2 4.7
2018-Aug-13 02:30N 36°08' W 005°23'3 6.7
2018-Aug-13 02:00N 36°05' W 005°22'510.5
2018-Aug-13 01:30N 36°06' W 005°15'2 3.1
2018-Aug-13 01:00N 36°05' W 005°17'1 2.8
2018-Aug-13 00:30N 36°05' W 005°19'1 1.3
2018-Aug-13 00:00N 36°06' W 005°18'1 2.6
2018-Aug-12 23:30N 36°04' W 005°19'0 0.8
2018-Aug-12 23:00N 36°05' W 005°18'1 1.2
2018-Aug-12 22:30N 36°05' W 005°18'0 0.8
2018-Aug-12 22:00N 36°06' W 005°18'3 6.8
2018-Aug-12 21:30N 36°04' W 005°22'1 2.8
2018-Aug-12 21:00N 36°03' W 005°22'611.5
2018-Aug-12 20:30N 35°58' W 005°27'1015.4
2018-Aug-12 19:53N 35°55' W 005°38'615.8
2018-Aug-12 19:29N 35°55' W 005°46'28 0.6
2018-Aug-10 23:43N 36°07' W 006°18'0 0.0
2018-Aug-10 05:04N 36°07' W 006°17'0 0.1
2018-Aug-10 04:58N 36°07' W 006°17'  
Track history (hours):
 
Tides and Currents Weather Stations Pressure Air Temp Water Temp Dewpoint Dewpoint Depression Visibility Wind Speed Wind Dir Waves Ship Positions

Sichem Manila

Last reported at 2018-Aug-19 13:40 UTC. Time now 2018-Aug-19 22:54 UTC.
Position N 37°18' W 000°56'.

Length 129 m; draft 7.2 m.

Type: Tanker. MMSI: 229432000.

Date/timePositionNaut miles runAvg speedWind from/ knotsBaromVisibWave heightAir tempDewpointWater temp
2018-Aug-19 13:40N 37°18' W 000°56'213.1
2018-Aug-19 13:30N 37°20' W 000°54'613.0
2018-Aug-19 13:00N 37°24' W 000°48'713.0
2018-Aug-19 12:30N 37°28' W 000°42'612.9
2018-Aug-19 12:00N 37°32' W 000°36'612.8
2018-Aug-19 11:30N 37°37' W 000°31'612.6
2018-Aug-19 11:00N 37°43' W 000°27'612.4
2018-Aug-19 10:30N 37°48' W 000°22'712.2
2018-Aug-19 09:58N 37°53' W 000°17'612.3
2018-Aug-19 09:30N 37°58' W 000°14'  
2018-Aug-15 21:35N 37°46' W 000°20'114.1
2018-Aug-15 21:30N 37°45' W 000°21'713.6
2018-Aug-15 21:00N 37°40' W 000°26'713.4
2018-Aug-15 20:30N 37°34' W 000°31'713.4
2018-Aug-15 20:00N 37°29' W 000°36'713.4
2018-Aug-15 19:30N 37°24' W 000°42'713.3
2018-Aug-15 19:00N 37°19' W 000°47'713.2
2018-Aug-15 18:30N 37°14' W 000°52'222 7.2
2018-Aug-14 11:41N 35°54' W 005°10'214.0
2018-Aug-14 11:31N 35°55' W 005°13'4 8.9
2018-Aug-14 11:01N 35°54' W 005°18'1 1.7
2018-Aug-14 10:30N 35°54' W 005°19'0 0.0
2018-Aug-14 10:00N 35°54' W 005°19'0 0.0
2018-Aug-14 09:28N 35°54' W 005°19'0 0.0
2018-Aug-14 08:58N 35°54' W 005°19'0 0.0
2018-Aug-14 08:28N 35°54' W 005°19'0 0.0
2018-Aug-14 07:58N 35°54' W 005°19'0 0.0
2018-Aug-14 07:28N 35°54' W 005°19'0 0.0
2018-Aug-14 06:58N 35°54' W 005°19'0 0.0
2018-Aug-14 06:28N 35°54' W 005°19'0 0.0
2018-Aug-14 05:58N 35°54' W 005°19'0 0.0
2018-Aug-14 05:28N 35°54' W 005°19'0 0.0
2018-Aug-14 04:58N 35°54' W 005°19'0 0.0
2018-Aug-14 04:28N 35°54' W 005°19'0 0.0
2018-Aug-14 03:58N 35°54' W 005°19'0 0.0
2018-Aug-14 03:28N 35°54' W 005°19'0 0.0
2018-Aug-14 03:00N 35°54' W 005°19'1 1.3
2018-Aug-14 02:30N 35°54' W 005°19'2 3.0
2018-Aug-14 02:00N 35°55' W 005°19'2 3.3
2018-Aug-14 01:31N 35°57' W 005°20'5 9.8
2018-Aug-14 01:00N 36°02' W 005°21'5 9.5
2018-Aug-14 00:31N 36°06' W 005°24'1 1.6
2018-Aug-13 23:59N 36°06' W 005°25'0 0.1
2018-Aug-13 23:29N 36°06' W 005°25'0 0.1
2018-Aug-13 22:57N 36°06' W 005°25'1 3.1
2018-Aug-13 22:30N 36°07' W 005°24'2 4.4
2018-Aug-13 22:00N 36°09' W 005°24'2 3.1
2018-Aug-13 21:29N 36°11' W 005°24'0 0.0
2018-Aug-13 21:00N 36°11' W 005°24'0 0.0
2018-Aug-13 20:25N 36°11' W 005°24'0 0.0
2018-Aug-13 19:55N 36°11' W 005°24'0 0.0
2018-Aug-13 18:13N 36°11' W 005°24'0 0.0
2018-Aug-13 17:49N 36°11' W 005°24'0 0.0
2018-Aug-13 17:25N 36°11' W 005°24'0 0.0
2018-Aug-13 16:58N 36°11' W 005°24'0 0.0
2018-Aug-13 16:28N 36°11' W 005°24'0 0.0
2018-Aug-13 15:55N 36°11' W 005°24'0 0.0
2018-Aug-13 15:28N 36°11' W 005°24'0 0.0
2018-Aug-13 14:58N 36°11' W 005°24'0 0.0
2018-Aug-13 14:28N 36°11' W 005°24'0 0.0
2018-Aug-13 13:58N 36°11' W 005°24'0 0.0
2018-Aug-13 13:19N 36°11' W 005°24'0 0.0
2018-Aug-13 12:55N 36°11' W 005°24'0 0.0
2018-Aug-13 05:49N 36°11' W 005°24'0 0.0
2018-Aug-13 05:25N 36°11' W 005°24'0 0.0
2018-Aug-13 04:49N 36°11' W 005°24'0 0.0
2018-Aug-13 04:28N 36°11' W 005°24'0 0.0
2018-Aug-13 03:49N 36°11' W 005°24'0 0.0
2018-Aug-13 03:30N 36°11' W 005°24'0 0.4
2018-Aug-13 03:00N 36°10' W 005°24'2 4.7
2018-Aug-13 02:30N 36°08' W 005°23'3 6.7
2018-Aug-13 02:00N 36°05' W 005°22'510.5
2018-Aug-13 01:30N 36°06' W 005°15'2 3.1
2018-Aug-13 01:00N 36°05' W 005°17'1 2.8
2018-Aug-13 00:30N 36°05' W 005°19'1 1.3
2018-Aug-13 00:00N 36°06' W 005°18'1 2.6
2018-Aug-12 23:30N 36°04' W 005°19'0 0.8
2018-Aug-12 23:00N 36°05' W 005°18'1 1.2
2018-Aug-12 22:30N 36°05' W 005°18'0 0.8
2018-Aug-12 22:00N 36°06' W 005°18'3 6.8
2018-Aug-12 21:30N 36°04' W 005°22'1 2.8
2018-Aug-12 21:00N 36°03' W 005°22'611.5
2018-Aug-12 20:30N 35°58' W 005°27'1015.4
2018-Aug-12 19:53N 35°55' W 005°38'615.8
2018-Aug-12 19:29N 35°55' W 005°46'28 0.6
2018-Aug-10 23:43N 36°07' W 006°18'0 0.0
2018-Aug-10 05:04N 36°07' W 006°17'0 0.1
2018-Aug-10 04:58N 36°07' W 006°17'  

Dump ship's entire track history